Time;durP1;ratioP1;P1;durP2;ratioP2;P2;SDS_P1;SDS_P2;PMS_P1;PMS_P2;Temp;Humidity;BMP_temperature;BMP_pressure;BME280_temperature;BME280_humidity;BME280_pressure;Samples;Min_cycle;Max_cycle;Signal;HPM_P1;HPM_P2
2023/10/19 00:01:15;;;;;;;4.25;3.10;;;11.70;99.90;;;;;;4958717;28;20031;-77
2023/10/19 00:03:42;;;;;;;5.00;3.42;;;11.80;99.90;;;;;;4973186;28;20096;-77
2023/10/19 00:06:08;;;;;;;4.57;3.55;;;11.80;99.90;;;;;;4974210;28;20041;-78
2023/10/19 00:08:40;;;;;;;6.93;3.80;;;11.80;99.90;;;;;;4971440;28;20038;-78
2023/10/19 00:11:22;;;;;;;4.47;2.88;;;11.90;99.90;;;;;;4973310;28;20096;-77
2023/10/19 00:13:50;;;;;;;4.95;3.80;;;11.90;99.90;;;;;;4944464;28;20045;-78
2023/10/19 00:16:22;;;;;;;4.47;3.83;;;11.90;99.90;;;;;;4973575;28;20109;-78
2023/10/19 00:18:48;;;;;;;4.53;3.00;;;12.00;99.90;;;;;;4969145;28;20234;-77
2023/10/19 00:21:27;;;;;;;5.40;4.10;;;12.00;99.90;;;;;;4970296;28;20034;-78
2023/10/19 00:23:56;;;;;;;3.97;3.33;;;12.00;99.90;;;;;;4959354;28;20038;-78
2023/10/19 00:26:25;;;;;;;4.88;3.25;;;12.00;99.90;;;;;;4958262;28;20577;-77
2023/10/19 00:28:53;;;;;;;3.75;2.80;;;12.00;99.90;;;;;;4960215;28;20049;-78
2023/10/19 00:31:22;;;;;;;4.82;4.03;;;12.10;99.90;;;;;;4958445;28;20025;-78
2023/10/19 00:33:51;;;;;;;3.40;2.38;;;12.10;99.90;;;;;;4975943;28;20427;-78
2023/10/19 00:36:20;;;;;;;5.20;4.68;;;12.20;99.90;;;;;;4969171;28;20046;-78
2023/10/19 00:38:53;;;;;;;4.50;3.72;;;12.20;99.90;;;;;;4983516;28;20123;-78
2023/10/19 00:41:31;;;;;;;6.97;4.55;;;12.10;99.90;;;;;;4975163;28;20030;-78
2023/10/19 00:44:06;;;;;;;4.35;3.35;;;12.20;99.90;;;;;;4956044;28;20367;-79
2023/10/19 00:46:32;;;;;;;5.10;4.60;;;12.20;99.90;;;;;;4971165;28;20072;-78
2023/10/19 00:49:00;;;;;;;6.90;5.35;;;12.20;99.90;;;;;;4938129;28;20061;-78
2023/10/19 00:54:13;;;;;;;5.25;4.30;;;12.20;99.90;;;;;;4970754;28;20049;-78
2023/10/19 00:56:45;;;;;;;6.40;3.95;;;12.30;99.90;;;;;;4956501;28;20039;-79
2023/10/19 00:59:14;;;;;;;5.90;4.72;;;12.30;99.90;;;;;;4972523;28;20399;-78
2023/10/19 01:01:45;;;;;;;5.15;3.80;;;12.30;99.90;;;;;;4972266;28;20034;-79
2023/10/19 01:04:14;;;;;;;6.05;4.88;;;12.30;99.90;;;;;;4973941;28;20104;-78
2023/10/19 01:06:59;;;;;;;5.45;4.10;;;12.30;99.90;;;;;;4969387;28;20039;-78
2023/10/19 01:09:30;;;;;;;5.72;4.10;;;12.30;99.90;;;;;;4969720;28;20045;-77
2023/10/19 01:12:11;;;;;;;6.20;4.28;;;12.30;99.90;;;;;;4970739;28;21239;-79
2023/10/19 01:14:37;;;;;;;4.50;3.97;;;12.40;99.90;;;;;;4960041;28;20045;-78
2023/10/19 01:17:02;;;;;;;4.45;3.70;;;12.40;99.90;;;;;;4973352;28;20041;-77
2023/10/19 01:19:28;;;;;;;5.30;4.10;;;12.40;99.90;;;;;;4958814;28;20131;-78
2023/10/19 01:21:59;;;;;;;5.07;3.88;;;12.40;99.90;;;;;;4957727;28;20030;-78
2023/10/19 01:24:43;;;;;;;4.75;4.00;;;12.40;99.90;;;;;;4974218;28;20031;-78
2023/10/19 01:27:09;;;;;;;5.38;4.60;;;12.50;99.90;;;;;;4972854;28;20136;-78
2023/10/19 01:29:38;;;;;;;7.05;5.55;;;12.50;99.90;;;;;;4936380;28;20141;-78
2023/10/19 01:32:08;;;;;;;5.80;4.38;;;12.50;99.90;;;;;;4960450;28;20029;-78
2023/10/19 01:34:34;;;;;;;5.28;3.40;;;12.50;99.90;;;;;;4959849;28;20108;-78
2023/10/19 01:37:03;;;;;;;6.63;4.50;;;12.60;99.90;;;;;;4963091;28;20034;-77
2023/10/19 01:39:31;;;;;;;6.85;5.13;;;12.60;99.90;;;;;;4961393;28;20061;-78
2023/10/19 01:41:57;;;;;;;4.75;3.35;;;12.60;99.90;;;;;;4963105;28;20042;-78
2023/10/19 01:44:24;;;;;;;6.82;4.05;;;12.60;99.90;;;;;;4976851;28;20106;-78
2023/10/19 01:46:50;;;;;;;4.38;3.97;;;12.60;99.90;;;;;;4975219;28;20511;-78
2023/10/19 01:49:25;;;;;;;6.65;4.72;;;12.60;99.90;;;;;;4958740;28;20117;-78
2023/10/19 01:51:51;;;;;;;3.85;2.85;;;12.60;99.90;;;;;;4961745;28;20561;-78
2023/10/19 01:54:18;;;;;;;5.82;3.95;;;12.60;99.90;;;;;;4974373;28;20093;-78
2023/10/19 01:56:43;;;;;;;7.18;4.45;;;12.60;99.90;;;;;;4977946;28;20389;-78
2023/10/19 01:59:09;;;;;;;7.70;5.25;;;12.70;99.90;;;;;;4975904;28;20038;-78
2023/10/19 02:01:37;;;;;;;5.72;4.10;;;12.70;99.90;;;;;;4976899;28;20398;-78
2023/10/19 02:04:05;;;;;;;5.65;4.07;;;12.70;99.90;;;;;;4974303;28;20104;-78
2023/10/19 02:06:40;;;;;;;5.43;3.90;;;12.80;99.90;;;;;;4958390;28;20034;-78
2023/10/19 02:09:17;;;;;;;3.58;2.88;;;12.80;99.90;;;;;;4972432;28;20038;-78
2023/10/19 02:11:44;;;;;;;5.63;4.22;;;12.80;99.90;;;;;;4949810;28;20036;-77
2023/10/19 02:14:16;;;;;;;4.93;3.78;;;12.80;99.90;;;;;;4977407;28;20030;-77
2023/10/19 02:16:43;;;;;;;6.00;4.07;;;12.80;99.90;;;;;;4960552;28;20034;-78
2023/10/19 02:19:09;;;;;;;5.32;3.97;;;12.80;99.90;;;;;;4961996;28;20061;-78
2023/10/19 02:21:39;;;;;;;6.97;3.50;;;12.90;99.90;;;;;;4958816;28;20139;-78
2023/10/19 02:24:09;;;;;;;4.80;3.90;;;12.80;99.90;;;;;;4975233;28;20041;-78
2023/10/19 02:26:37;;;;;;;4.88;3.92;;;12.90;99.90;;;;;;4946412;28;20049;-78
2023/10/19 02:29:07;;;;;;;4.80;3.63;;;12.90;99.90;;;;;;4955531;28;20117;-78
2023/10/19 02:31:34;;;;;;;3.60;3.03;;;12.90;99.90;;;;;;4983013;28;20084;-78
2023/10/19 02:33:59;;;;;;;4.90;2.83;;;12.90;99.90;;;;;;4974576;28;20034;-78
2023/10/19 02:36:31;;;;;;;3.53;3.13;;;12.90;99.90;;;;;;4960437;28;20026;-78
2023/10/19 02:39:00;;;;;;;2.97;2.67;;;12.90;99.90;;;;;;4961651;28;20521;-78
2023/10/19 02:41:29;;;;;;;4.28;2.70;;;12.90;99.90;;;;;;4960355;28;20041;-78
2023/10/19 02:44:01;;;;;;;3.90;2.88;;;13.00;99.90;;;;;;4957818;28;20057;-78
2023/10/19 02:46:31;;;;;;;3.38;2.63;;;13.00;99.90;;;;;;4958327;28;20486;-77
2023/10/19 02:49:03;;;;;;;8.23;2.55;;;13.00;99.90;;;;;;4990671;28;20065;-78
2023/10/19 02:51:30;;;;;;;5.47;3.70;;;13.00;99.90;;;;;;4961434;28;20760;-78
2023/10/19 02:53:56;;;;;;;2.90;1.85;;;13.00;99.90;;;;;;4976606;28;20034;-78
2023/10/19 02:56:23;;;;;;;2.90;1.52;;;13.10;99.90;;;;;;4958980;28;20494;-77
2023/10/19 02:58:49;;;;;;;3.13;2.03;;;13.10;99.90;;;;;;4955237;28;20093;-78
2023/10/19 03:01:22;;;;;;;2.92;1.65;;;13.10;99.90;;;;;;4962958;28;20550;-78
2023/10/19 03:03:49;;;;;;;2.40;1.92;;;13.20;99.90;;;;;;4959834;28;20037;-78
2023/10/19 03:06:20;;;;;;;2.42;1.58;;;13.20;99.90;;;;;;4974832;28;20042;-78
2023/10/19 03:08:46;;;;;;;3.17;1.52;;;13.20;99.90;;;;;;4958629;28;20045;-78
2023/10/19 03:11:13;;;;;;;2.10;1.80;;;13.20;99.90;;;;;;4976720;28;20501;-77
2023/10/19 03:13:40;;;;;;;3.50;1.73;;;13.30;99.90;;;;;;4962695;28;20058;-77
2023/10/19 03:16:09;;;;;;;2.58;1.63;;;13.20;99.90;;;;;;4959728;28;20034;-78
2023/10/19 03:18:35;;;;;;;1.40;1.30;;;13.30;99.90;;;;;;4974444;28;20046;-78
2023/10/19 03:21:02;;;;;;;3.60;1.70;;;13.30;99.90;;;;;;4960758;28;20533;-78
2023/10/19 03:23:28;;;;;;;3.30;1.73;;;13.30;99.90;;;;;;4958953;28;20038;-78
2023/10/19 03:28:40;;;;;;;3.70;2.10;;;13.40;99.90;;;;;;4973989;28;20089;-78
2023/10/19 03:31:07;;;;;;;4.00;1.90;;;13.40;99.90;;;;;;4975700;28;20042;-77
2023/10/19 03:33:36;;;;;;;4.25;2.05;;;13.40;99.90;;;;;;4957956;28;20434;-78
2023/10/19 03:36:02;;;;;;;3.97;2.28;;;13.40;99.90;;;;;;4960031;28;20038;-78
2023/10/19 03:38:28;;;;;;;6.22;2.50;;;13.40;99.90;;;;;;4973283;28;20034;-78
2023/10/19 03:40:59;;;;;;;3.97;2.40;;;13.40;99.90;;;;;;4975336;28;20057;-78
2023/10/19 03:43:27;;;;;;;2.08;1.95;;;13.40;99.90;;;;;;4971673;28;20031;-79
2023/10/19 03:45:53;;;;;;;2.88;1.98;;;13.40;99.90;;;;;;4959812;28;20537;-78
2023/10/19 03:48:29;;;;;;;2.28;1.95;;;13.40;99.90;;;;;;4972362;28;20042;-78
2023/10/19 03:50:55;;;;;;;2.28;1.60;;;13.40;99.90;;;;;;4959956;28;20045;-78
2023/10/19 03:53:21;;;;;;;2.17;1.98;;;13.40;99.90;;;;;;4977366;28;20117;-78
2023/10/19 03:55:49;;;;;;;3.03;2.00;;;13.40;99.90;;;;;;4971204;28;20873;-77
2023/10/19 03:58:15;;;;;;;4.22;1.83;;;13.40;99.90;;;;;;4962226;28;20036;-78
2023/10/19 04:00:41;;;;;;;2.28;1.50;;;13.40;99.90;;;;;;4959460;28;20056;-78
2023/10/19 04:03:07;;;;;;;2.03;1.70;;;13.40;99.90;;;;;;4960992;28;20490;-77
2023/10/19 04:05:38;;;;;;;2.00;0.90;;;13.40;99.90;;;;;;4956445;28;20390;-78
2023/10/19 04:08:12;;;;;;;3.28;1.38;;;13.40;99.90;;;;;;4959146;28;20042;-78
2023/10/19 04:10:38;;;;;;;3.70;1.70;;;13.40;99.90;;;;;;4959410;28;20041;-78
2023/10/19 04:13:09;;;;;;;2.88;1.30;;;13.50;99.90;;;;;;4973220;28;20034;-78
2023/10/19 04:15:35;;;;;;;4.32;1.40;;;13.50;99.90;;;;;;4969818;28;20027;-77
2023/10/19 04:18:01;;;;;;;6.50;3.55;;;13.50;99.90;;;;;;4974529;28;20042;-78
2023/10/19 04:20:29;;;;;;;3.03;1.88;;;13.50;99.90;;;;;;4958703;28;20512;-78
2023/10/19 04:22:57;;;;;;;2.97;1.70;;;13.50;99.90;;;;;;4960392;28;20034;-78
2023/10/19 04:25:25;;;;;;;3.22;1.95;;;13.50;99.90;;;;;;4972862;28;20100;-78
2023/10/19 04:27:51;;;;;;;3.92;2.05;;;13.50;99.90;;;;;;4969544;28;20030;-78
2023/10/19 04:30:24;;;;;;;2.83;1.60;;;13.50;99.90;;;;;;4956456;28;20065;-78
2023/10/19 04:32:50;;;;;;;3.35;1.77;;;13.50;99.90;;;;;;4973839;28;20104;-77
2023/10/19 04:35:21;;;;;;;4.60;1.60;;;13.50;99.90;;;;;;4988411;28;20034;-77
2023/10/19 04:37:51;;;;;;;2.08;1.60;;;13.50;99.90;;;;;;4970596;28;20503;-78
2023/10/19 04:40:17;;;;;;;1.70;1.30;;;13.50;99.90;;;;;;4954126;28;20077;-77
2023/10/19 04:42:43;;;;;;;2.83;1.30;;;13.50;99.90;;;;;;4958070;28;20038;-77
2023/10/19 04:45:11;;;;;;;3.75;1.50;;;13.50;99.90;;;;;;4972463;28;20026;-79
2023/10/19 04:47:37;;;;;;;2.28;1.30;;;13.50;99.90;;;;;;4955015;28;20498;-77
2023/10/19 04:50:03;;;;;;;4.28;1.40;;;13.50;99.90;;;;;;4974848;28;20055;-77
2023/10/19 04:52:29;;;;;;;2.83;1.38;;;13.50;99.90;;;;;;4973130;28;20034;-78
2023/10/19 04:54:54;;;;;;;5.18;1.67;;;13.50;99.90;;;;;;4968881;28;20041;-77
2023/10/19 04:57:23;;;;;;;3.83;1.73;;;13.50;99.90;;;;;;4973013;28;20038;-77
2023/10/19 04:59:48;;;;;;;6.55;1.80;;;13.50;99.90;;;;;;4974375;28;20422;-76
2023/10/19 05:02:14;;;;;;;2.38;1.50;;;13.50;99.90;;;;;;4958314;28;20034;-76
2023/10/19 05:04:40;;;;;;;3.65;1.67;;;13.50;99.90;;;;;;4973603;28;20395;-77
2023/10/19 05:07:07;;;;;;;1.67;1.38;;;13.50;99.90;;;;;;4975738;28;20065;-77
2023/10/19 05:09:32;;;;;;;2.22;1.45;;;13.60;99.90;;;;;;4955916;28;20405;-77
2023/10/19 05:11:58;;;;;;;3.33;1.40;;;13.50;99.90;;;;;;4958976;28;20034;-77
2023/10/19 05:14:24;;;;;;;4.47;1.50;;;13.50;99.90;;;;;;4956607;28;20145;-77
2023/10/19 05:16:49;;;;;;;3.85;1.50;;;13.60;99.90;;;;;;4956596;28;20035;-77
2023/10/19 05:19:15;;;;;;;3.72;1.50;;;13.50;99.90;;;;;;4972395;28;20034;-77
2023/10/19 05:21:41;;;;;;;6.03;1.60;;;13.50;99.90;;;;;;4957325;28;20116;-77
2023/10/19 05:24:07;;;;;;;2.30;1.35;;;13.50;99.90;;;;;;4955623;28;20097;-77
2023/10/19 05:26:35;;;;;;;9.00;1.75;;;13.50;99.90;;;;;;4973380;28;20038;-77
2023/10/19 05:29:01;;;;;;;3.00;1.60;;;13.50;99.90;;;;;;4956936;28;20049;-77
2023/10/19 05:31:28;;;;;;;3.25;2.30;;;13.50;99.90;;;;;;4968416;28;20042;-77
2023/10/19 05:33:53;;;;;;;1.95;1.55;;;13.50;99.90;;;;;;4953294;28;20042;-77
2023/10/19 05:36:19;;;;;;;5.70;1.67;;;13.50;99.90;;;;;;4971369;28;20037;-77
2023/10/19 05:38:45;;;;;;;4.07;1.80;;;13.50;99.90;;;;;;4971505;28;20109;-77
2023/10/19 05:41:11;;;;;;;2.75;1.80;;;13.40;99.90;;;;;;4974978;28;20034;-76
2023/10/19 05:43:37;;;;;;;5.68;2.03;;;13.40;99.90;;;;;;4970368;28;20038;-77
2023/10/19 05:46:03;;;;;;;4.15;1.60;;;13.30;99.90;;;;;;4957157;28;20061;-76
2023/10/19 05:48:28;;;;;;;3.25;1.60;;;13.40;99.90;;;;;;4952683;28;20081;-77
2023/10/19 05:50:54;;;;;;;6.60;2.35;;;13.30;99.90;;;;;;4952724;28;20046;-76
2023/10/19 05:53:22;;;;;;;4.07;1.67;;;13.30;99.90;;;;;;4954049;28;20053;-77
2023/10/19 05:55:49;;;;;;;1.60;1.25;;;13.30;99.90;;;;;;4971832;28;20122;-77
2023/10/19 05:58:14;;;;;;;2.45;1.35;;;13.30;99.90;;;;;;4977508;28;20553;-77
2023/10/19 06:00:40;;;;;;;4.68;1.40;;;13.30;99.90;;;;;;4956845;28;20041;-77
2023/10/19 06:03:06;;;;;;;1.77;1.27;;;13.30;99.90;;;;;;4970790;28;20030;-76
2023/10/19 06:05:31;;;;;;;2.72;1.25;;;13.30;99.90;;;;;;4955378;28;20069;-77
2023/10/19 06:07:59;;;;;;;2.10;1.05;;;13.30;99.90;;;;;;4972653;28;20398;-77
2023/10/19 06:10:27;;;;;;;4.20;1.30;;;13.30;99.90;;;;;;4958777;28;20053;-76
2023/10/19 06:12:52;;;;;;;4.25;1.30;;;13.40;99.90;;;;;;4968629;28;20495;-77
2023/10/19 06:15:20;;;;;;;2.83;1.35;;;13.30;99.90;;;;;;4971572;28;20065;-77
2023/10/19 06:17:47;;;;;;;3.20;1.42;;;13.30;99.90;;;;;;4968483;28;20125;-78
2023/10/19 06:20:26;;;;;;;2.08;1.00;;;13.30;99.90;;;;;;4973167;28;20399;-77
2023/10/19 06:22:55;;;;;;;4.07;1.40;;;13.30;99.90;;;;;;4943941;28;20439;-77
2023/10/19 06:25:24;;;;;;;4.53;1.52;;;13.30;99.90;;;;;;4977114;28;20120;-77
2023/10/19 06:27:50;;;;;;;4.45;1.52;;;13.30;99.90;;;;;;4965039;28;20041;-78
2023/10/19 06:30:18;;;;;;;4.32;1.60;;;13.30;99.90;;;;;;4945889;28;20034;-78
2023/10/19 06:32:48;;;;;;;3.33;1.58;;;13.30;99.90;;;;;;4973443;28;20605;-78
2023/10/19 06:35:13;;;;;;;3.13;1.17;;;13.20;99.90;;;;;;4972419;28;20030;-78
2023/10/19 06:37:40;;;;;;;6.78;1.40;;;13.30;99.90;;;;;;4973255;28;20453;-76
2023/10/19 06:40:06;;;;;;;3.25;1.42;;;13.30;99.90;;;;;;4975123;28;20026;-77
2023/10/19 06:42:32;;;;;;;2.72;1.23;;;13.30;99.90;;;;;;4960563;28;20037;-76
2023/10/19 06:44:57;;;;;;;4.32;1.90;;;13.30;99.90;;;;;;4972382;28;20630;-77
2023/10/19 06:47:23;;;;;;;6.40;1.52;;;13.30;99.90;;;;;;4958514;28;20034;-77
2023/10/19 06:49:50;;;;;;;5.75;1.85;;;13.30;99.90;;;;;;4953804;28;20134;-78
2023/10/19 06:52:15;;;;;;;6.05;2.03;;;13.30;99.90;;;;;;4975402;28;20502;-77
2023/10/19 06:54:41;;;;;;;3.17;1.92;;;13.30;99.90;;;;;;4957963;28;20030;-78
2023/10/19 06:57:08;;;;;;;5.68;2.70;;;13.40;99.90;;;;;;4975415;28;20046;-78
2023/10/19 06:59:35;;;;;;;4.45;1.52;;;13.40;99.90;;;;;;4956148;28;20536;-77
2023/10/19 07:02:01;;;;;;;6.07;2.30;;;13.40;99.90;;;;;;4975308;28;20058;-78
2023/10/19 07:04:28;;;;;;;4.70;1.70;;;13.40;99.90;;;;;;4976167;28;20049;-77
2023/10/19 07:06:53;;;;;;;2.72;1.88;;;13.40;99.90;;;;;;4971143;28;20065;-78
2023/10/19 07:09:21;;;;;;;2.33;1.38;;;13.40;99.90;;;;;;4958905;28;20026;-78
2023/10/19 07:11:47;;;;;;;6.85;2.20;;;13.50;99.90;;;;;;4971502;28;20054;-77
2023/10/19 07:14:13;;;;;;;2.80;1.60;;;13.50;99.90;;;;;;4955669;28;20030;-77
2023/10/19 07:16:40;;;;;;;3.80;1.40;;;13.50;99.90;;;;;;4972452;28;20426;-77
2023/10/19 07:19:06;;;;;;;1.95;1.35;;;13.50;99.90;;;;;;4963412;28;20031;-78
2023/10/19 07:21:35;;;;;;;3.35;1.60;;;13.60;99.90;;;;;;4972957;28;20791;-79
2023/10/19 07:24:05;;;;;;;3.55;1.63;;;13.60;99.90;;;;;;4974448;28;20092;-79
2023/10/19 07:26:33;;;;;;;3.78;1.40;;;13.60;99.90;;;;;;4962186;28;20038;-79
2023/10/19 07:28:59;;;;;;;3.03;1.90;;;13.70;99.90;;;;;;4969745;28;20038;-79
2023/10/19 07:31:27;;;;;;;4.38;2.20;;;13.70;99.90;;;;;;4956227;28;20058;-79
2023/10/19 07:33:55;;;;;;;1.95;1.48;;;13.70;99.90;;;;;;4961291;28;20049;-79
2023/10/19 07:36:21;;;;;;;4.78;1.83;;;13.70;99.90;;;;;;4975501;28;20077;-79
2023/10/19 07:38:47;;;;;;;3.25;1.80;;;13.70;99.90;;;;;;4961305;28;20038;-78
2023/10/19 07:41:13;;;;;;;5.10;1.83;;;13.80;99.90;;;;;;4973503;28;20611;-79
2023/10/19 07:43:39;;;;;;;5.03;2.40;;;13.80;99.90;;;;;;4975233;28;20061;-79
2023/10/19 07:46:08;;;;;;;4.85;1.58;;;13.80;99.90;;;;;;4972245;28;20034;-79
2023/10/19 07:48:33;;;;;;;3.80;2.15;;;13.90;99.90;;;;;;4957777;28;20509;-78
2023/10/19 07:50:59;;;;;;;6.68;1.98;;;13.90;99.90;;;;;;4972332;28;20049;-78
2023/10/19 07:53:25;;;;;;;8.38;2.42;;;13.90;99.90;;;;;;4956079;28;20028;-78
2023/10/19 07:55:52;;;;;;;5.95;2.30;;;13.90;99.90;;;;;;4974655;28;20036;-78
2023/10/19 07:58:18;;;;;;;3.30;2.13;;;14.00;99.90;;;;;;4970885;28;20042;-78
2023/10/19 08:00:46;;;;;;;7.95;1.77;;;14.00;99.90;;;;;;4962851;28;20090;-79
2023/10/19 08:03:13;;;;;;;4.78;2.22;;;14.10;99.90;;;;;;4971732;28;20042;-78
2023/10/19 08:05:39;;;;;;;5.57;2.25;;;14.10;99.90;;;;;;4976369;28;20034;-78
2023/10/19 08:08:05;;;;;;;9.32;2.35;;;14.10;99.90;;;;;;4962311;28;20088;-78
2023/10/19 08:10:31;;;;;;;2.47;1.60;;;14.20;99.90;;;;;;4976952;28;20038;-78
2023/10/19 08:12:58;;;;;;;3.90;2.38;;;14.20;99.90;;;;;;4972867;28;20108;-78
2023/10/19 08:15:24;;;;;;;5.07;1.75;;;14.20;99.90;;;;;;4974213;28;20126;-79
2023/10/19 08:17:51;;;;;;;3.85;1.75;;;14.30;99.90;;;;;;4973271;28;20022;-78
2023/10/19 08:20:17;;;;;;;5.63;2.10;;;14.30;99.90;;;;;;4973326;28;20034;-78
2023/10/19 08:22:44;;;;;;;6.65;1.70;;;14.30;99.90;;;;;;4970955;28;20041;-78
2023/10/19 08:25:14;;;;;;;5.95;1.80;;;14.40;99.90;;;;;;4941374;28;20050;-78
2023/10/19 08:27:41;;;;;;;4.38;1.73;;;14.40;99.90;;;;;;4956925;28;20031;-78
2023/10/19 08:30:08;;;;;;;3.15;1.65;;;14.50;99.90;;;;;;4972616;28;20026;-78
2023/10/19 08:32:35;;;;;;;7.07;2.20;;;14.50;99.90;;;;;;4973872;28;20035;-78
2023/10/19 08:35:02;;;;;;;4.53;2.03;;;14.60;99.90;;;;;;4973724;28;20030;-78
2023/10/19 08:37:28;;;;;;;3.00;1.30;;;14.60;99.90;;;;;;4971715;28;20037;-78
2023/10/19 08:39:54;;;;;;;4.10;1.40;;;14.70;99.90;;;;;;4989048;28;20031;-79
2023/10/19 08:42:20;;;;;;;11.43;2.35;;;14.80;99.90;;;;;;4959033;28;20048;-79
2023/10/19 08:44:45;;;;;;;5.72;1.65;;;14.90;99.90;;;;;;4970069;28;20235;-79
2023/10/19 08:47:12;;;;;;;2.95;1.40;;;15.00;99.90;;;;;;4955371;28;20030;-78
2023/10/19 08:49:37;;;;;;;2.75;1.40;;;15.10;99.90;;;;;;4957139;28;20182;-78
2023/10/19 08:52:04;;;;;;;7.45;1.60;;;15.10;99.90;;;;;;4971249;28;20133;-78
2023/10/19 08:54:33;;;;;;;6.25;1.73;;;15.20;99.90;;;;;;4957191;28;20022;-78
2023/10/19 08:56:59;;;;;;;4.03;1.58;;;15.30;99.90;;;;;;4977754;28;20057;-78
2023/10/19 08:59:25;;;;;;;1.38;1.23;;;15.40;99.90;;;;;;4968035;28;20073;-78
2023/10/19 09:01:50;;;;;;;1.77;1.10;;;15.50;99.90;;;;;;4974325;28;20122;-78
2023/10/19 09:04:16;;;;;;;3.90;1.70;;;15.60;99.90;;;;;;4973216;28;20065;-79
2023/10/19 09:06:42;;;;;;;3.92;1.27;;;15.70;99.90;;;;;;4970342;28;20062;-79
2023/10/19 09:09:20;;;;;;;4.82;1.58;;;15.70;99.90;;;;;;4970597;28;20026;-78
2023/10/19 09:11:46;;;;;;;1.48;1.08;;;15.80;99.90;;;;;;4957624;28;20064;-78
2023/10/19 09:14:17;;;;;;;6.70;1.23;;;15.90;99.90;;;;;;4967777;28;20364;-78
2023/10/19 09:16:56;;;;;;;2.45;1.00;;;16.00;99.90;;;;;;4961147;28;20089;-78
2023/10/19 09:19:40;;;;;;;2.60;1.50;;;16.10;99.90;;;;;;4957858;28;20084;-78
2023/10/19 09:22:18;;;;;;;2.08;1.25;;;16.20;99.90;;;;;;4962542;28;20513;-78
2023/10/19 09:24:46;;;;;;;2.85;1.33;;;16.20;99.90;;;;;;4975311;28;20129;-78
2023/10/19 09:27:13;;;;;;;5.20;1.60;;;16.30;99.90;;;;;;4955282;28;20057;-78
2023/10/19 09:29:40;;;;;;;3.05;1.15;;;16.40;99.90;;;;;;4967516;28;20035;-78
2023/10/19 09:32:06;;;;;;;5.00;1.55;;;16.50;99.90;;;;;;4954108;28;20376;-78
2023/10/19 09:34:32;;;;;;;4.28;1.38;;;16.50;99.90;;;;;;4956152;28;20118;-78
2023/10/19 09:37:01;;;;;;;3.13;1.13;;;16.60;99.90;;;;;;4970469;28;20343;-78
2023/10/19 09:39:36;;;;;;;2.78;1.10;;;16.70;99.90;;;;;;4958146;28;20060;-78
2023/10/19 09:42:10;;;;;;;9.35;2.13;;;16.80;99.90;;;;;;4972104;28;20494;-78
2023/10/19 09:44:55;;;;;;;5.97;2.10;;;16.80;99.90;;;;;;4970895;28;20675;-78
2023/10/19 09:47:27;;;;;;;3.38;1.50;;;16.90;99.90;;;;;;4954502;28;20043;-78
2023/10/19 09:49:53;;;;;;;3.50;1.42;;;17.30;99.90;;;;;;4952231;28;20035;-78
2023/10/19 09:52:19;;;;;;;3.88;1.33;;;17.50;99.90;;;;;;4971690;28;20057;-79
2023/10/19 09:55:06;;;;;;;2.33;1.25;;;17.50;99.90;;;;;;4958521;28;20026;-79
2023/10/19 09:57:34;;;;;;;4.03;1.40;;;17.50;99.90;;;;;;4986374;28;20116;-79
2023/10/19 10:00:12;;;;;;;3.92;1.30;;;17.60;99.90;;;;;;4978648;28;20042;-79
2023/10/19 10:02:42;;;;;;;3.25;1.08;;;17.70;99.90;;;;;;4975563;28;20725;-79
2023/10/19 10:05:42;;;;;;;3.20;1.25;;;17.90;99.90;;;;;;4953569;28;20023;-79
2023/10/19 10:08:17;;;;;;;4.55;1.55;;;17.70;99.90;;;;;;4988936;28;20455;-79
2023/10/19 10:10:43;;;;;;;5.65;1.63;;;17.90;99.90;;;;;;4987949;28;20031;-80
2023/10/19 10:13:24;;;;;;;3.55;1.40;;;17.90;99.90;;;;;;4972510;28;20114;-80
2023/10/19 10:15:54;;;;;;;3.58;1.70;;;18.20;99.90;;;;;;4993067;28;20030;-79
2023/10/19 10:18:20;;;;;;;3.78;1.10;;;18.30;99.90;;;;;;4975802;28;20042;-80
2023/10/19 10:20:47;;;;;;;4.72;1.35;;;18.20;99.90;;;;;;4972673;28;20089;-79
2023/10/19 10:23:24;;;;;;;5.97;1.63;;;18.30;99.90;;;;;;4960096;28;20506;-80
2023/10/19 10:25:53;;;;;;;2.85;1.02;;;18.40;99.90;;;;;;4976835;28;20030;-79
2023/10/19 10:28:19;;;;;;;2.10;1.13;;;18.70;99.90;;;;;;4975441;28;20277;-80
2023/10/19 10:31:15;;;;;;;3.83;1.30;;;18.80;99.90;;;;;;4958818;28;20033;-80
2023/10/19 10:33:46;;;;;;;4.07;1.25;;;19.00;99.90;;;;;;4975051;28;20632;-80
2023/10/19 10:36:16;;;;;;;2.95;1.10;;;19.10;99.90;;;;;;4955526;28;20625;-80
2023/10/19 10:38:43;;;;;;;6.05;1.50;;;19.10;99.90;;;;;;4976314;28;20045;-80
2023/10/19 10:41:11;;;;;;;5.00;1.70;;;19.20;99.90;;;;;;4961668;28;20704;-80
2023/10/19 10:43:53;;;;;;;10.48;2.28;;;19.20;99.90;;;;;;4956626;28;20121;-81
2023/10/19 10:46:21;;;;;;;4.88;1.20;;;19.30;99.90;;;;;;4974463;28;20054;-80
2023/10/19 10:48:48;;;;;;;2.40;1.20;;;19.20;99.90;;;;;;4976371;28;20110;-80
2023/10/19 10:51:24;;;;;;;4.57;1.27;;;19.40;99.90;;;;;;4976316;28;20072;-80
2023/10/19 10:53:51;;;;;;;4.03;1.33;;;19.80;99.90;;;;;;4958921;28;20030;-80
2023/10/19 10:56:17;;;;;;;2.70;1.35;;;20.00;99.90;;;;;;4956671;28;20235;-80
2023/10/19 10:58:43;;;;;;;3.83;1.50;;;20.00;99.90;;;;;;4975564;28;20041;-80
2023/10/19 11:01:10;;;;;;;5.88;1.20;;;19.90;99.90;;;;;;4977593;28;20034;-79
2023/10/19 11:03:36;;;;;;;3.67;1.25;;;20.10;99.90;;;;;;4942217;28;20133;-81
2023/10/19 11:06:07;;;;;;;7.40;1.27;;;20.20;99.90;;;;;;4956453;28;20054;-80
2023/10/19 11:08:33;;;;;;;4.18;1.15;;;20.10;99.90;;;;;;4973458;28;20537;-80
2023/10/19 11:11:04;;;;;;;3.88;1.00;;;20.10;99.90;;;;;;4959298;28;20038;-80
2023/10/19 11:13:32;;;;;;;3.45;1.15;;;20.30;99.90;;;;;;4958824;28;20027;-80
2023/10/19 11:15:58;;;;;;;5.50;1.10;;;20.30;99.90;;;;;;4959568;28;20402;-80
2023/10/19 11:18:37;;;;;;;3.22;1.20;;;20.30;99.90;;;;;;4995983;28;20034;-80
2023/10/19 11:21:09;;;;;;;11.75;1.55;;;20.30;99.90;;;;;;4956609;28;20521;-80
2023/10/19 11:23:45;;;;;;;12.52;1.58;;;20.60;99.90;;;;;;4973705;28;20039;-80
2023/10/19 11:26:12;;;;;;;5.20;1.30;;;20.60;99.90;;;;;;4961197;28;20044;-81
2023/10/19 11:28:47;;;;;;;5.88;1.80;;;20.60;99.90;;;;;;4971679;28;20164;-80
2023/10/19 11:31:21;;;;;;;5.93;1.42;;;20.60;99.90;;;;;;4976348;28;20069;-81
2023/10/19 11:33:50;;;;;;;5.47;1.75;;;20.60;99.90;;;;;;4957053;28;20433;-80
2023/10/19 11:36:16;;;;;;;2.42;1.30;;;20.60;99.90;;;;;;4964030;28;20113;-81
2023/10/19 11:38:43;;;;;;;5.82;1.38;;;20.60;99.90;;;;;;4958632;28;20041;-81
2023/10/19 11:41:09;;;;;;;4.10;1.65;;;20.50;99.90;;;;;;4956195;28;20054;-80
2023/10/19 11:43:35;;;;;;;5.90;1.40;;;20.60;99.90;;;;;;4959348;28;20038;-80
2023/10/19 11:46:04;;;;;;;3.92;1.30;;;20.70;99.90;;;;;;4949885;28;20042;-80
2023/10/19 11:48:30;;;;;;;5.05;1.40;;;20.60;99.90;;;;;;4957782;28;20049;-80
2023/10/19 11:50:56;;;;;;;5.78;1.58;;;20.60;99.90;;;;;;4975524;28;20042;-80
2023/10/19 11:53:21;;;;;;;8.25;1.65;;;20.50;99.90;;;;;;4977149;28;20046;-80
2023/10/19 11:55:48;;;;;;;6.13;1.38;;;20.50;99.90;;;;;;4957652;28;20046;-80
2023/10/19 11:58:14;;;;;;;6.43;1.58;;;20.40;99.90;;;;;;4974359;28;20552;-79
2023/10/19 12:00:43;;;;;;;6.30;1.70;;;20.40;99.90;;;;;;4976272;28;20034;-81
2023/10/19 12:03:10;;;;;;;9.85;1.70;;;20.50;99.90;;;;;;4959655;28;20037;-81
2023/10/19 12:05:37;;;;;;;6.85;1.55;;;20.60;99.90;;;;;;4956595;28;21003;-80
2023/10/19 12:08:03;;;;;;;9.68;1.40;;;20.50;99.90;;;;;;4959671;28;20034;-80
2023/10/19 12:10:38;;;;;;;3.92;1.10;;;20.70;99.90;;;;;;4973425;28;20034;-80
2023/10/19 12:13:08;;;;;;;5.40;1.72;;;20.70;99.90;;;;;;4625163;28;10000810;-79
2023/10/19 12:15:34;;;;;;;5.78;1.27;;;20.70;99.90;;;;;;4616304;28;10000379;-81
2023/10/19 12:17:59;;;;;;;5.80;1.67;;;20.80;99.90;;;;;;4940641;28;20554;-81
2023/10/19 12:20:26;;;;;;;4.72;1.02;;;20.90;99.90;;;;;;4956298;28;20030;-81
2023/10/19 12:22:58;;;;;;;7.28;1.30;;;20.70;99.90;;;;;;4972508;28;20465;-81
2023/10/19 12:25:31;;;;;;;7.57;1.50;;;20.70;99.90;;;;;;4956795;28;20037;-80
2023/10/19 12:27:57;;;;;;;6.85;1.60;;;20.80;99.90;;;;;;4972163;28;20414;-80
2023/10/19 12:30:26;;;;;;;6.38;1.83;;;20.80;99.90;;;;;;4959565;28;20148;-80
2023/10/19 12:32:52;;;;;;;5.82;1.52;;;20.80;99.90;;;;;;4958138;28;20097;-81
2023/10/19 12:35:19;;;;;;;8.40;1.63;;;20.80;99.90;;;;;;4970380;28;20101;-80
2023/10/19 12:37:55;;;;;;;7.55;1.77;;;20.80;99.90;;;;;;4975976;28;20034;-80
2023/10/19 12:40:28;;;;;;;6.68;1.67;;;20.90;99.90;;;;;;4970566;28;20478;-80
2023/10/19 12:42:54;;;;;;;4.00;1.00;;;20.90;99.90;;;;;;4974463;28;20105;-79
2023/10/19 12:45:23;;;;;;;2.92;0.82;;;20.90;99.90;;;;;;4971601;28;20493;-80
2023/10/19 12:47:49;;;;;;;4.60;1.60;;;20.90;99.90;;;;;;4937381;28;20044;-80
2023/10/19 12:50:19;;;;;;;6.43;1.20;;;21.00;99.90;;;;;;4967362;28;20026;-80
2023/10/19 12:52:45;;;;;;;6.50;1.75;;;20.90;99.90;;;;;;4956482;28;20060;-80
2023/10/19 12:55:12;;;;;;;7.15;1.40;;;20.90;99.90;;;;;;4956456;28;20126;-80
2023/10/19 12:57:37;;;;;;;3.92;1.15;;;21.00;99.90;;;;;;4954612;28;20066;-80